sensor_id;sensor_type;location;lat;lon;timestamp;temperature;humidity
18388;DHT22;9320;50.256;19.026;2022-08-26T00:02:09;20.60;99.90
18388;DHT22;9320;50.256;19.026;2022-08-26T00:04:39;20.60;99.90
18388;DHT22;9320;50.256;19.026;2022-08-26T00:07:08;20.60;99.90
18388;DHT22;9320;50.256;19.026;2022-08-26T00:09:36;20.60;99.90
18388;DHT22;9320;50.256;19.026;2022-08-26T00:12:07;20.50;99.90
18388;DHT22;9320;50.256;19.026;2022-08-26T00:14:38;20.50;99.90
18388;DHT22;9320;50.256;19.026;2022-08-26T00:17:06;20.40;99.90
18388;DHT22;9320;50.256;19.026;2022-08-26T00:19:35;20.40;99.90
18388;DHT22;9320;50.256;19.026;2022-08-26T00:22:05;20.40;99.90
18388;DHT22;9320;50.256;19.026;2022-08-26T00:24:33;20.40;99.90
18388;DHT22;9320;50.256;19.026;2022-08-26T00:27:01;20.40;99.90
18388;DHT22;9320;50.256;19.026;2022-08-26T00:29:32;20.40;99.90
18388;DHT22;9320;50.256;19.026;2022-08-26T00:32:04;20.40;99.90
18388;DHT22;9320;50.256;19.026;2022-08-26T00:34:32;20.40;99.90
18388;DHT22;9320;50.256;19.026;2022-08-26T00:37:01;20.40;99.90
18388;DHT22;9320;50.256;19.026;2022-08-26T00:39:36;20.30;99.90
18388;DHT22;9320;50.256;19.026;2022-08-26T00:42:04;20.30;99.90
18388;DHT22;9320;50.256;19.026;2022-08-26T00:44:32;20.30;99.90
18388;DHT22;9320;50.256;19.026;2022-08-26T00:47:03;20.20;99.90
18388;DHT22;9320;50.256;19.026;2022-08-26T00:49:36;20.20;99.90
18388;DHT22;9320;50.256;19.026;2022-08-26T00:52:08;20.20;99.90
18388;DHT22;9320;50.256;19.026;2022-08-26T00:54:48;20.20;99.90
18388;DHT22;9320;50.256;19.026;2022-08-26T00:57:19;20.20;99.90
18388;DHT22;9320;50.256;19.026;2022-08-26T00:59:51;20.20;99.90
18388;DHT22;9320;50.256;19.026;2022-08-26T01:02:20;20.20;99.90
18388;DHT22;9320;50.256;19.026;2022-08-26T01:04:49;20.20;99.90
18388;DHT22;9320;50.256;19.026;2022-08-26T01:07:23;20.10;99.90
18388;DHT22;9320;50.256;19.026;2022-08-26T01:09:53;20.00;99.90
18388;DHT22;9320;50.256;19.026;2022-08-26T01:12:22;20.00;99.90
18388;DHT22;9320;50.256;19.026;2022-08-26T01:14:50;20.00;99.90
18388;DHT22;9320;50.256;19.026;2022-08-26T01:17:18;20.00;99.90
18388;DHT22;9320;50.256;19.026;2022-08-26T01:19:50;20.00;99.90
18388;DHT22;9320;50.256;19.026;2022-08-26T01:22:23;20.00;99.90
18388;DHT22;9320;50.256;19.026;2022-08-26T01:24:56;20.00;99.90
18388;DHT22;9320;50.256;19.026;2022-08-26T01:27:27;19.90;99.90
18388;DHT22;9320;50.256;19.026;2022-08-26T01:29:59;19.90;99.90
18388;DHT22;9320;50.256;19.026;2022-08-26T01:32:29;19.90;99.90
18388;DHT22;9320;50.256;19.026;2022-08-26T01:34:58;19.90;99.90
18388;DHT22;9320;50.256;19.026;2022-08-26T01:37:32;19.90;99.90
18388;DHT22;9320;50.256;19.026;2022-08-26T01:40:09;19.80;99.90
18388;DHT22;9320;50.256;19.026;2022-08-26T01:42:40;19.80;99.90
18388;DHT22;9320;50.256;19.026;2022-08-26T01:45:12;19.70;99.90
18388;DHT22;9320;50.256;19.026;2022-08-26T01:47:41;19.70;99.90
18388;DHT22;9320;50.256;19.026;2022-08-26T01:50:13;19.70;99.90
18388;DHT22;9320;50.256;19.026;2022-08-26T01:52:57;19.60;99.90
18388;DHT22;9320;50.256;19.026;2022-08-26T01:55:28;19.60;99.90
18388;DHT22;9320;50.256;19.026;2022-08-26T01:58:01;19.60;99.90
18388;DHT22;9320;50.256;19.026;2022-08-26T02:00:32;19.60;99.90
18388;DHT22;9320;50.256;19.026;2022-08-26T02:03:02;19.60;99.90
18388;DHT22;9320;50.256;19.026;2022-08-26T02:05:44;19.60;99.90
18388;DHT22;9320;50.256;19.026;2022-08-26T02:08:17;19.50;99.90
18388;DHT22;9320;50.256;19.026;2022-08-26T02:10:53;19.50;99.90
18388;DHT22;9320;50.256;19.026;2022-08-26T02:13:23;19.40;99.90
18388;DHT22;9320;50.256;19.026;2022-08-26T02:15:53;19.40;99.90
18388;DHT22;9320;50.256;19.026;2022-08-26T02:18:22;19.40;99.90
18388;DHT22;9320;50.256;19.026;2022-08-26T02:20:52;19.40;99.90
18388;DHT22;9320;50.256;19.026;2022-08-26T02:23:21;19.40;99.90
18388;DHT22;9320;50.256;19.026;2022-08-26T02:25:55;19.40;99.90
18388;DHT22;9320;50.256;19.026;2022-08-26T02:28:28;19.40;99.90
18388;DHT22;9320;50.256;19.026;2022-08-26T02:30:58;19.40;99.90
18388;DHT22;9320;50.256;19.026;2022-08-26T02:33:28;19.40;99.90
18388;DHT22;9320;50.256;19.026;2022-08-26T02:35:56;19.40;99.90
18388;DHT22;9320;50.256;19.026;2022-08-26T02:38:24;19.40;99.90
18388;DHT22;9320;50.256;19.026;2022-08-26T02:40:54;19.40;99.90
18388;DHT22;9320;50.256;19.026;2022-08-26T02:43:23;19.30;99.90
18388;DHT22;9320;50.256;19.026;2022-08-26T02:45:58;19.20;99.90
18388;DHT22;9320;50.256;19.026;2022-08-26T02:48:29;19.20;99.90
18388;DHT22;9320;50.256;19.026;2022-08-26T02:50:58;19.20;99.90
18388;DHT22;9320;50.256;19.026;2022-08-26T02:53:27;19.20;99.90
18388;DHT22;9320;50.256;19.026;2022-08-26T02:55:59;19.10;99.90
18388;DHT22;9320;50.256;19.026;2022-08-26T02:58:28;19.20;99.90
18388;DHT22;9320;50.256;19.026;2022-08-26T03:00:57;19.10;99.90
18388;DHT22;9320;50.256;19.026;2022-08-26T03:03:27;19.20;99.90
18388;DHT22;9320;50.256;19.026;2022-08-26T03:05:56;19.20;99.90
18388;DHT22;9320;50.256;19.026;2022-08-26T03:08:24;19.20;99.90
18388;DHT22;9320;50.256;19.026;2022-08-26T03:10:53;19.20;99.90
18388;DHT22;9320;50.256;19.026;2022-08-26T03:13:23;19.10;99.90
18388;DHT22;9320;50.256;19.026;2022-08-26T03:15:51;19.10;99.90
18388;DHT22;9320;50.256;19.026;2022-08-26T03:18:19;19.10;99.90
18388;DHT22;9320;50.256;19.026;2022-08-26T03:20:47;19.10;99.90
18388;DHT22;9320;50.256;19.026;2022-08-26T03:23:15;19.10;99.90
18388;DHT22;9320;50.256;19.026;2022-08-26T03:25:48;19.00;99.90
18388;DHT22;9320;50.256;19.026;2022-08-26T03:28:16;19.00;99.90
18388;DHT22;9320;50.256;19.026;2022-08-26T03:30:47;19.00;99.90
18388;DHT22;9320;50.256;19.026;2022-08-26T03:33:15;19.00;99.90
18388;DHT22;9320;50.256;19.026;2022-08-26T03:35:44;18.90;99.90
18388;DHT22;9320;50.256;19.026;2022-08-26T03:38:17;18.90;99.90
18388;DHT22;9320;50.256;19.026;2022-08-26T03:40:45;19.00;99.90
18388;DHT22;9320;50.256;19.026;2022-08-26T03:43:14;19.00;99.90
18388;DHT22;9320;50.256;19.026;2022-08-26T03:45:43;19.00;99.90
18388;DHT22;9320;50.256;19.026;2022-08-26T03:48:13;19.00;99.90
18388;DHT22;9320;50.256;19.026;2022-08-26T03:50:41;19.00;99.90
18388;DHT22;9320;50.256;19.026;2022-08-26T03:53:09;19.00;99.90
18388;DHT22;9320;50.256;19.026;2022-08-26T03:55:39;19.00;99.90
18388;DHT22;9320;50.256;19.026;2022-08-26T03:58:07;19.00;99.90
18388;DHT22;9320;50.256;19.026;2022-08-26T04:00:35;19.00;99.90
18388;DHT22;9320;50.256;19.026;2022-08-26T04:03:03;18.90;99.90
18388;DHT22;9320;50.256;19.026;2022-08-26T04:05:37;18.80;99.90
18388;DHT22;9320;50.256;19.026;2022-08-26T04:08:05;19.00;99.90
18388;DHT22;9320;50.256;19.026;2022-08-26T04:10:36;18.90;99.90
18388;DHT22;9320;50.256;19.026;2022-08-26T04:13:04;18.90;99.90
18388;DHT22;9320;50.256;19.026;2022-08-26T04:15:33;19.00;99.90
18388;DHT22;9320;50.256;19.026;2022-08-26T04:18:01;18.90;99.90
18388;DHT22;9320;50.256;19.026;2022-08-26T04:20:29;19.00;99.90
18388;DHT22;9320;50.256;19.026;2022-08-26T04:22:59;19.00;99.90
18388;DHT22;9320;50.256;19.026;2022-08-26T04:25:27;19.00;99.90
18388;DHT22;9320;50.256;19.026;2022-08-26T04:27:55;19.00;99.90
18388;DHT22;9320;50.256;19.026;2022-08-26T04:30:23;19.00;99.90
18388;DHT22;9320;50.256;19.026;2022-08-26T04:32:51;19.00;99.90
18388;DHT22;9320;50.256;19.026;2022-08-26T04:35:19;18.90;99.90
18388;DHT22;9320;50.256;19.026;2022-08-26T04:37:52;18.90;99.90
18388;DHT22;9320;50.256;19.026;2022-08-26T04:40:22;19.00;99.90
18388;DHT22;9320;50.256;19.026;2022-08-26T04:42:53;19.00;99.90
18388;DHT22;9320;50.256;19.026;2022-08-26T04:45:21;19.00;99.90
18388;DHT22;9320;50.256;19.026;2022-08-26T04:47:53;19.00;99.90
18388;DHT22;9320;50.256;19.026;2022-08-26T04:50:23;19.00;99.90
18388;DHT22;9320;50.256;19.026;2022-08-26T04:52:52;19.10;99.90
18388;DHT22;9320;50.256;19.026;2022-08-26T04:55:22;19.20;99.90
18388;DHT22;9320;50.256;19.026;2022-08-26T04:58:05;19.20;99.90
18388;DHT22;9320;50.256;19.026;2022-08-26T05:00:36;19.20;99.90
18388;DHT22;9320;50.256;19.026;2022-08-26T05:03:05;19.30;99.90
18388;DHT22;9320;50.256;19.026;2022-08-26T05:05:37;19.30;99.90
18388;DHT22;9320;50.256;19.026;2022-08-26T05:08:05;19.30;99.90
18388;DHT22;9320;50.256;19.026;2022-08-26T05:10:39;19.40;99.90
18388;DHT22;9320;50.256;19.026;2022-08-26T05:13:09;19.40;99.90
18388;DHT22;9320;50.256;19.026;2022-08-26T05:15:41;19.40;99.90
18388;DHT22;9320;50.256;19.026;2022-08-26T05:18:11;19.50;99.90
18388;DHT22;9320;50.256;19.026;2022-08-26T05:20:40;19.40;99.90
18388;DHT22;9320;50.256;19.026;2022-08-26T05:23:09;19.50;99.90
18388;DHT22;9320;50.256;19.026;2022-08-26T05:25:38;19.60;99.90
18388;DHT22;9320;50.256;19.026;2022-08-26T05:28:07;19.50;99.90
18388;DHT22;9320;50.256;19.026;2022-08-26T05:30:37;19.60;99.90
18388;DHT22;9320;50.256;19.026;2022-08-26T05:33:07;19.70;99.90
18388;DHT22;9320;50.256;19.026;2022-08-26T05:35:36;19.70;99.90
18388;DHT22;9320;50.256;19.026;2022-08-26T05:38:07;19.70;99.90
18388;DHT22;9320;50.256;19.026;2022-08-26T05:40:41;19.80;99.90
18388;DHT22;9320;50.256;19.026;2022-08-26T05:43:11;19.90;99.90
18388;DHT22;9320;50.256;19.026;2022-08-26T05:45:41;19.90;99.90
18388;DHT22;9320;50.256;19.026;2022-08-26T05:48:12;20.00;99.90
18388;DHT22;9320;50.256;19.026;2022-08-26T05:50:44;20.10;99.90
18388;DHT22;9320;50.256;19.026;2022-08-26T05:53:13;20.10;99.90
18388;DHT22;9320;50.256;19.026;2022-08-26T05:55:46;20.20;99.90
18388;DHT22;9320;50.256;19.026;2022-08-26T05:58:15;20.20;99.90
18388;DHT22;9320;50.256;19.026;2022-08-26T06:00:54;20.30;99.90
18388;DHT22;9320;50.256;19.026;2022-08-26T06:03:23;20.30;99.90
18388;DHT22;9320;50.256;19.026;2022-08-26T06:05:51;20.30;99.90
18388;DHT22;9320;50.256;19.026;2022-08-26T06:08:19;20.40;99.90
18388;DHT22;9320;50.256;19.026;2022-08-26T06:10:53;20.40;99.90
18388;DHT22;9320;50.256;19.026;2022-08-26T06:13:23;20.40;99.90
18388;DHT22;9320;50.256;19.026;2022-08-26T06:15:53;20.50;99.90
18388;DHT22;9320;50.256;19.026;2022-08-26T06:18:24;20.50;99.90
18388;DHT22;9320;50.256;19.026;2022-08-26T06:20:54;20.50;99.90
18388;DHT22;9320;50.256;19.026;2022-08-26T06:23:25;20.70;99.90
18388;DHT22;9320;50.256;19.026;2022-08-26T06:26:13;20.70;99.90
18388;DHT22;9320;50.256;19.026;2022-08-26T06:28:42;20.90;99.90
18388;DHT22;9320;50.256;19.026;2022-08-26T06:31:11;21.00;99.90
18388;DHT22;9320;50.256;19.026;2022-08-26T06:33:40;21.00;99.90
18388;DHT22;9320;50.256;19.026;2022-08-26T06:36:08;21.10;99.90
18388;DHT22;9320;50.256;19.026;2022-08-26T06:38:36;21.10;99.80
18388;DHT22;9320;50.256;19.026;2022-08-26T06:41:07;21.30;98.80
18388;DHT22;9320;50.256;19.026;2022-08-26T06:43:39;21.30;98.30
18388;DHT22;9320;50.256;19.026;2022-08-26T06:46:09;21.30;98.10
18388;DHT22;9320;50.256;19.026;2022-08-26T06:48:38;21.40;97.80
18388;DHT22;9320;50.256;19.026;2022-08-26T06:51:08;21.50;97.20
18388;DHT22;9320;50.256;19.026;2022-08-26T06:53:38;21.60;97.00
18388;DHT22;9320;50.256;19.026;2022-08-26T06:56:08;21.60;96.60
18388;DHT22;9320;50.256;19.026;2022-08-26T06:58:40;21.70;96.10
18388;DHT22;9320;50.256;19.026;2022-08-26T07:01:14;21.80;96.00
18388;DHT22;9320;50.256;19.026;2022-08-26T07:03:44;21.90;96.00
18388;DHT22;9320;50.256;19.026;2022-08-26T07:06:14;21.90;95.80
18388;DHT22;9320;50.256;19.026;2022-08-26T07:08:44;22.00;95.80
18388;DHT22;9320;50.256;19.026;2022-08-26T07:11:13;22.10;95.80
18388;DHT22;9320;50.256;19.026;2022-08-26T07:13:44;22.20;95.70
18388;DHT22;9320;50.256;19.026;2022-08-26T07:16:15;22.30;95.30
18388;DHT22;9320;50.256;19.026;2022-08-26T07:18:44;22.30;95.00
18388;DHT22;9320;50.256;19.026;2022-08-26T07:21:15;22.50;94.60
18388;DHT22;9320;50.256;19.026;2022-08-26T07:23:44;22.60;93.80
18388;DHT22;9320;50.256;19.026;2022-08-26T07:26:15;22.70;93.50
18388;DHT22;9320;50.256;19.026;2022-08-26T07:28:47;22.80;93.30
18388;DHT22;9320;50.256;19.026;2022-08-26T07:31:20;22.90;93.20
18388;DHT22;9320;50.256;19.026;2022-08-26T07:33:49;23.00;93.10
18388;DHT22;9320;50.256;19.026;2022-08-26T07:36:19;23.00;93.20
18388;DHT22;9320;50.256;19.026;2022-08-26T07:38:48;23.00;92.70
18388;DHT22;9320;50.256;19.026;2022-08-26T07:41:17;23.20;92.70
18388;DHT22;9320;50.256;19.026;2022-08-26T07:43:48;23.20;92.70
18388;DHT22;9320;50.256;19.026;2022-08-26T07:46:17;23.30;92.20
18388;DHT22;9320;50.256;19.026;2022-08-26T07:48:53;23.30;92.10
18388;DHT22;9320;50.256;19.026;2022-08-26T07:51:21;23.50;91.60
18388;DHT22;9320;50.256;19.026;2022-08-26T07:53:50;23.60;91.40
18388;DHT22;9320;50.256;19.026;2022-08-26T07:56:19;23.70;90.90
18388;DHT22;9320;50.256;19.026;2022-08-26T07:58:50;23.80;90.90
18388;DHT22;9320;50.256;19.026;2022-08-26T08:01:18;23.80;90.70
18388;DHT22;9320;50.256;19.026;2022-08-26T08:03:47;23.90;90.70
18388;DHT22;9320;50.256;19.026;2022-08-26T08:06:17;24.00;90.30
18388;DHT22;9320;50.256;19.026;2022-08-26T08:08:46;24.00;90.10
18388;DHT22;9320;50.256;19.026;2022-08-26T08:11:17;24.10;89.80
18388;DHT22;9320;50.256;19.026;2022-08-26T08:13:49;24.10;89.50
18388;DHT22;9320;50.256;19.026;2022-08-26T08:16:23;24.20;89.70
18388;DHT22;9320;50.256;19.026;2022-08-26T08:18:52;24.40;89.70
18388;DHT22;9320;50.256;19.026;2022-08-26T08:21:21;24.40;89.10
18388;DHT22;9320;50.256;19.026;2022-08-26T08:23:50;24.60;87.60
18388;DHT22;9320;50.256;19.026;2022-08-26T08:26:19;24.80;87.10
18388;DHT22;9320;50.256;19.026;2022-08-26T08:28:49;25.00;87.10
18388;DHT22;9320;50.256;19.026;2022-08-26T08:31:21;25.00;86.70
18388;DHT22;9320;50.256;19.026;2022-08-26T08:34:09;25.00;86.60
18388;DHT22;9320;50.256;19.026;2022-08-26T08:36:37;25.10;86.40
18388;DHT22;9320;50.256;19.026;2022-08-26T08:39:07;25.20;82.80
18388;DHT22;9320;50.256;19.026;2022-08-26T08:41:52;25.30;82.70
18388;DHT22;9320;50.256;19.026;2022-08-26T08:44:25;25.30;82.50
18388;DHT22;9320;50.256;19.026;2022-08-26T08:47:02;25.40;82.90
18388;DHT22;9320;50.256;19.026;2022-08-26T08:49:33;25.60;80.80
18388;DHT22;9320;50.256;19.026;2022-08-26T08:52:05;25.90;80.10
18388;DHT22;9320;50.256;19.026;2022-08-26T08:54:37;26.30;77.60
18388;DHT22;9320;50.256;19.026;2022-08-26T08:57:10;26.50;76.30
18388;DHT22;9320;50.256;19.026;2022-08-26T08:59:45;26.70;74.10
18388;DHT22;9320;50.256;19.026;2022-08-26T09:02:25;26.80;73.40
18388;DHT22;9320;50.256;19.026;2022-08-26T09:05:04;26.70;74.20
18388;DHT22;9320;50.256;19.026;2022-08-26T09:07:36;26.80;74.30
18388;DHT22;9320;50.256;19.026;2022-08-26T09:10:28;26.90;73.80
18388;DHT22;9320;50.256;19.026;2022-08-26T09:12:59;27.00;73.60
18388;DHT22;9320;50.256;19.026;2022-08-26T09:15:33;27.00;73.50
18388;DHT22;9320;50.256;19.026;2022-08-26T09:18:10;27.10;73.00
18388;DHT22;9320;50.256;19.026;2022-08-26T09:20:48;27.10;72.10
18388;DHT22;9320;50.256;19.026;2022-08-26T09:23:19;27.30;72.10
18388;DHT22;9320;50.256;19.026;2022-08-26T09:25:49;27.60;71.90
18388;DHT22;9320;50.256;19.026;2022-08-26T09:28:19;27.80;70.40
18388;DHT22;9320;50.256;19.026;2022-08-26T09:31:01;28.30;68.70
18388;DHT22;9320;50.256;19.026;2022-08-26T09:33:36;29.70;67.00
18388;DHT22;9320;50.256;19.026;2022-08-26T09:36:14;31.40;63.10
18388;DHT22;9320;50.256;19.026;2022-08-26T09:38:43;32.70;59.60
18388;DHT22;9320;50.256;19.026;2022-08-26T09:41:25;32.30;57.50
18388;DHT22;9320;50.256;19.026;2022-08-26T09:44:15;32.70;57.60
18388;DHT22;9320;50.256;19.026;2022-08-26T09:46:53;32.30;55.70
18388;DHT22;9320;50.256;19.026;2022-08-26T09:49:27;32.60;54.20
18388;DHT22;9320;50.256;19.026;2022-08-26T09:52:20;33.00;52.90
18388;DHT22;9320;50.256;19.026;2022-08-26T09:55:00;33.10;52.70
18388;DHT22;9320;50.256;19.026;2022-08-26T09:57:31;34.30;50.70
18388;DHT22;9320;50.256;19.026;2022-08-26T10:00:00;37.00;47.80
18388;DHT22;9320;50.256;19.026;2022-08-26T10:02:39;37.70;45.30
18388;DHT22;9320;50.256;19.026;2022-08-26T10:05:16;38.10;44.30
18388;DHT22;9320;50.256;19.026;2022-08-26T10:07:47;38.70;40.90
18388;DHT22;9320;50.256;19.026;2022-08-26T10:10:21;39.40;38.50
18388;DHT22;9320;50.256;19.026;2022-08-26T10:13:02;41.40;37.20
18388;DHT22;9320;50.256;19.026;2022-08-26T10:15:43;42.20;36.40
18388;DHT22;9320;50.256;19.026;2022-08-26T10:18:20;44.60;33.90
18388;DHT22;9320;50.256;19.026;2022-08-26T10:20:56;45.00;32.30
18388;DHT22;9320;50.256;19.026;2022-08-26T10:23:28;45.10;32.50
18388;DHT22;9320;50.256;19.026;2022-08-26T10:26:04;44.30;31.80
18388;DHT22;9320;50.256;19.026;2022-08-26T10:28:39;43.40;31.00
18388;DHT22;9320;50.256;19.026;2022-08-26T10:31:22;43.70;29.90
18388;DHT22;9320;50.256;19.026;2022-08-26T10:33:56;42.10;33.50
18388;DHT22;9320;50.256;19.026;2022-08-26T10:36:29;40.50;36.20
18388;DHT22;9320;50.256;19.026;2022-08-26T10:39:45;39.00;37.10
18388;DHT22;9320;50.256;19.026;2022-08-26T10:42:26;37.10;42.30
18388;DHT22;9320;50.256;19.026;2022-08-26T10:45:03;35.90;43.70
18388;DHT22;9320;50.256;19.026;2022-08-26T10:47:42;34.70;43.30
18388;DHT22;9320;50.256;19.026;2022-08-26T10:50:15;33.60;44.20
18388;DHT22;9320;50.256;19.026;2022-08-26T10:52:53;33.30;41.90
18388;DHT22;9320;50.256;19.026;2022-08-26T10:55:32;32.80;42.30
18388;DHT22;9320;50.256;19.026;2022-08-26T10:58:12;32.50;42.60
18388;DHT22;9320;50.256;19.026;2022-08-26T11:00:58;32.20;42.50
18388;DHT22;9320;50.256;19.026;2022-08-26T11:03:55;31.80;43.30
18388;DHT22;9320;50.256;19.026;2022-08-26T11:06:28;31.70;44.00
18388;DHT22;9320;50.256;19.026;2022-08-26T11:08:58;31.60;45.90
18388;DHT22;9320;50.256;19.026;2022-08-26T11:11:41;31.30;46.10
18388;DHT22;9320;50.256;19.026;2022-08-26T11:14:31;31.10;46.70
18388;DHT22;9320;50.256;19.026;2022-08-26T11:17:53;31.10;45.30
18388;DHT22;9320;50.256;19.026;2022-08-26T11:20:32;31.00;45.50
18388;DHT22;9320;50.256;19.026;2022-08-26T11:23:36;30.70;44.70
18388;DHT22;9320;50.256;19.026;2022-08-26T11:26:16;30.60;45.80
18388;DHT22;9320;50.256;19.026;2022-08-26T11:29:09;30.60;45.90
18388;DHT22;9320;50.256;19.026;2022-08-26T11:31:53;30.50;46.20
18388;DHT22;9320;50.256;19.026;2022-08-26T11:37:29;30.50;46.00
18388;DHT22;9320;50.256;19.026;2022-08-26T11:40:01;30.30;45.90
18388;DHT22;9320;50.256;19.026;2022-08-26T11:42:35;30.30;46.80
18388;DHT22;9320;50.256;19.026;2022-08-26T11:45:15;30.20;46.50
18388;DHT22;9320;50.256;19.026;2022-08-26T11:47:44;30.20;46.80
18388;DHT22;9320;50.256;19.026;2022-08-26T11:50:18;30.10;47.70
18388;DHT22;9320;50.256;19.026;2022-08-26T11:52:55;30.20;48.30
18388;DHT22;9320;50.256;19.026;2022-08-26T11:55:29;30.30;47.20
18388;DHT22;9320;50.256;19.026;2022-08-26T11:57:59;30.20;47.30
18388;DHT22;9320;50.256;19.026;2022-08-26T12:00:33;30.10;47.50
18388;DHT22;9320;50.256;19.026;2022-08-26T12:03:06;30.10;48.10
18388;DHT22;9320;50.256;19.026;2022-08-26T12:05:40;30.10;47.60
18388;DHT22;9320;50.256;19.026;2022-08-26T12:08:11;30.10;48.00
18388;DHT22;9320;50.256;19.026;2022-08-26T12:10:41;30.10;48.50
18388;DHT22;9320;50.256;19.026;2022-08-26T12:13:20;30.10;47.90
18388;DHT22;9320;50.256;19.026;2022-08-26T12:15:52;30.00;47.90
18388;DHT22;9320;50.256;19.026;2022-08-26T12:18:23;30.10;48.70
18388;DHT22;9320;50.256;19.026;2022-08-26T12:20:57;30.20;48.50
18388;DHT22;9320;50.256;19.026;2022-08-26T12:23:35;30.20;47.10
18388;DHT22;9320;50.256;19.026;2022-08-26T12:26:10;30.20;45.60
18388;DHT22;9320;50.256;19.026;2022-08-26T12:28:43;30.10;44.90
18388;DHT22;9320;50.256;19.026;2022-08-26T12:31:19;30.10;45.50
18388;DHT22;9320;50.256;19.026;2022-08-26T12:33:48;30.10;45.20
18388;DHT22;9320;50.256;19.026;2022-08-26T12:36:21;30.10;45.40
18388;DHT22;9320;50.256;19.026;2022-08-26T12:38:50;30.20;46.30
18388;DHT22;9320;50.256;19.026;2022-08-26T12:41:43;30.20;46.40
18388;DHT22;9320;50.256;19.026;2022-08-26T12:44:35;30.10;47.20
18388;DHT22;9320;50.256;19.026;2022-08-26T12:47:06;30.10;47.40
18388;DHT22;9320;50.256;19.026;2022-08-26T12:49:36;30.10;46.30
18388;DHT22;9320;50.256;19.026;2022-08-26T12:52:09;30.00;46.10
18388;DHT22;9320;50.256;19.026;2022-08-26T12:54:57;30.00;46.10
18388;DHT22;9320;50.256;19.026;2022-08-26T12:57:30;30.00;45.00
18388;DHT22;9320;50.256;19.026;2022-08-26T13:00:23;30.00;44.80
18388;DHT22;9320;50.256;19.026;2022-08-26T13:02:54;30.10;44.10
18388;DHT22;9320;50.256;19.026;2022-08-26T13:05:25;30.10;43.90
18388;DHT22;9320;50.256;19.026;2022-08-26T13:08:12;30.10;44.50
18388;DHT22;9320;50.256;19.026;2022-08-26T13:10:43;30.00;45.50
18388;DHT22;9320;50.256;19.026;2022-08-26T13:13:13;30.10;45.60
18388;DHT22;9320;50.256;19.026;2022-08-26T13:15:41;30.10;45.70
18388;DHT22;9320;50.256;19.026;2022-08-26T13:18:10;30.10;44.70
18388;DHT22;9320;50.256;19.026;2022-08-26T13:20:41;30.10;45.00
18388;DHT22;9320;50.256;19.026;2022-08-26T13:23:10;30.00;45.70
18388;DHT22;9320;50.256;19.026;2022-08-26T13:25:39;30.00;46.10
18388;DHT22;9320;50.256;19.026;2022-08-26T13:28:07;30.00;45.00
18388;DHT22;9320;50.256;19.026;2022-08-26T13:30:37;30.00;45.00
18388;DHT22;9320;50.256;19.026;2022-08-26T13:33:06;30.00;45.30
18388;DHT22;9320;50.256;19.026;2022-08-26T13:35:37;29.90;46.20
18388;DHT22;9320;50.256;19.026;2022-08-26T13:38:06;29.90;46.90
18388;DHT22;9320;50.256;19.026;2022-08-26T13:40:59;29.90;47.30
18388;DHT22;9320;50.256;19.026;2022-08-26T13:43:28;29.90;46.50
18388;DHT22;9320;50.256;19.026;2022-08-26T13:45:58;30.00;46.70
18388;DHT22;9320;50.256;19.026;2022-08-26T13:48:28;29.90;46.70
18388;DHT22;9320;50.256;19.026;2022-08-26T13:50:57;29.90;47.70
18388;DHT22;9320;50.256;19.026;2022-08-26T13:53:25;29.90;48.50
18388;DHT22;9320;50.256;19.026;2022-08-26T13:55:56;29.90;49.10
18388;DHT22;9320;50.256;19.026;2022-08-26T13:58:25;29.90;50.10
18388;DHT22;9320;50.256;19.026;2022-08-26T14:00:55;29.80;49.90
18388;DHT22;9320;50.256;19.026;2022-08-26T14:03:25;29.90;50.10
18388;DHT22;9320;50.256;19.026;2022-08-26T14:05:54;29.90;50.00
18388;DHT22;9320;50.256;19.026;2022-08-26T14:08:22;29.90;49.20
18388;DHT22;9320;50.256;19.026;2022-08-26T14:10:50;29.80;49.60
18388;DHT22;9320;50.256;19.026;2022-08-26T14:13:18;29.90;49.70
18388;DHT22;9320;50.256;19.026;2022-08-26T14:15:46;29.80;50.60
18388;DHT22;9320;50.256;19.026;2022-08-26T14:18:16;29.80;50.30
18388;DHT22;9320;50.256;19.026;2022-08-26T14:20:48;29.80;50.30
18388;DHT22;9320;50.256;19.026;2022-08-26T14:23:16;29.80;49.60
18388;DHT22;9320;50.256;19.026;2022-08-26T14:25:45;29.80;49.40
18388;DHT22;9320;50.256;19.026;2022-08-26T14:28:13;29.90;49.00
18388;DHT22;9320;50.256;19.026;2022-08-26T14:30:42;29.90;49.00
18388;DHT22;9320;50.256;19.026;2022-08-26T14:33:12;29.80;49.00
18388;DHT22;9320;50.256;19.026;2022-08-26T14:35:42;29.70;48.10
18388;DHT22;9320;50.256;19.026;2022-08-26T14:38:16;29.60;48.10
18388;DHT22;9320;50.256;19.026;2022-08-26T14:40:45;29.60;48.20
18388;DHT22;9320;50.256;19.026;2022-08-26T14:43:13;29.50;48.50
18388;DHT22;9320;50.256;19.026;2022-08-26T14:45:43;29.50;48.40
18388;DHT22;9320;50.256;19.026;2022-08-26T14:48:11;29.50;49.10
18388;DHT22;9320;50.256;19.026;2022-08-26T14:50:40;29.50;49.10
18388;DHT22;9320;50.256;19.026;2022-08-26T14:53:08;29.50;48.80
18388;DHT22;9320;50.256;19.026;2022-08-26T14:55:55;29.40;48.30
18388;DHT22;9320;50.256;19.026;2022-08-26T14:58:23;29.40;48.00
18388;DHT22;9320;50.256;19.026;2022-08-26T15:00:58;29.40;47.60
18388;DHT22;9320;50.256;19.026;2022-08-26T15:03:30;29.40;47.70
18388;DHT22;9320;50.256;19.026;2022-08-26T15:05:58;29.30;48.30
18388;DHT22;9320;50.256;19.026;2022-08-26T15:08:26;29.30;48.20
18388;DHT22;9320;50.256;19.026;2022-08-26T15:10:55;29.20;48.10
18388;DHT22;9320;50.256;19.026;2022-08-26T15:13:23;29.20;48.00
18388;DHT22;9320;50.256;19.026;2022-08-26T15:15:51;29.20;48.10
18388;DHT22;9320;50.256;19.026;2022-08-26T15:18:20;29.20;47.80
18388;DHT22;9320;50.256;19.026;2022-08-26T15:20:48;29.20;47.90
18388;DHT22;9320;50.256;19.026;2022-08-26T15:23:16;29.20;47.70
18388;DHT22;9320;50.256;19.026;2022-08-26T15:25:47;29.20;48.00
18388;DHT22;9320;50.256;19.026;2022-08-26T15:28:16;29.20;48.20
18388;DHT22;9320;50.256;19.026;2022-08-26T15:30:45;29.20;48.50
18388;DHT22;9320;50.256;19.026;2022-08-26T15:33:13;29.10;48.80
18388;DHT22;9320;50.256;19.026;2022-08-26T15:35:42;29.10;49.00
18388;DHT22;9320;50.256;19.026;2022-08-26T15:38:10;29.00;48.80
18388;DHT22;9320;50.256;19.026;2022-08-26T15:40:39;29.00;48.50
18388;DHT22;9320;50.256;19.026;2022-08-26T15:43:07;28.90;48.60
18388;DHT22;9320;50.256;19.026;2022-08-26T15:45:55;28.90;48.30
18388;DHT22;9320;50.256;19.026;2022-08-26T15:48:24;28.80;48.50
18388;DHT22;9320;50.256;19.026;2022-08-26T15:50:54;28.80;48.50
18388;DHT22;9320;50.256;19.026;2022-08-26T15:53:23;28.80;48.70
18388;DHT22;9320;50.256;19.026;2022-08-26T15:55:52;28.70;48.90
18388;DHT22;9320;50.256;19.026;2022-08-26T15:58:23;28.70;49.00
18388;DHT22;9320;50.256;19.026;2022-08-26T16:00:54;28.70;49.30
18388;DHT22;9320;50.256;19.026;2022-08-26T16:03:23;28.60;49.50
18388;DHT22;9320;50.256;19.026;2022-08-26T16:05:51;28.70;49.50